createdAt,value
2019-02-24T00:00:52.995Z,34.95
2019-02-24T00:01:52.983Z,34.95
2019-02-24T00:02:52.972Z,34.54
2019-02-24T00:03:54.686Z,34.64
2019-02-24T00:04:52.946Z,34.44
2019-02-24T00:05:52.940Z,34.74
2019-02-24T00:06:52.929Z,33.42
2019-02-24T00:07:52.917Z,34.85
2019-02-24T00:08:52.906Z,35.15
2019-02-24T00:09:52.893Z,34.95
2019-02-24T00:10:52.885Z,34.42
2019-02-24T00:11:52.882Z,34.73
2019-02-24T00:16:52.819Z,33.83
2019-02-24T00:17:52.807Z,33.13
2019-02-24T00:18:52.800Z,34.56
2019-02-24T00:19:52.789Z,34.86
2019-02-24T00:20:52.775Z,33.35
2019-02-24T00:21:52.765Z,34.78
2019-02-24T00:39:52.971Z,30.01
2019-02-24T00:48:52.472Z,36.66
2019-02-24T00:49:52.461Z,33.89
2019-02-24T00:50:52.453Z,34.30
2019-02-24T00:51:52.442Z,33.08
2019-02-24T00:52:52.434Z,32.89
2019-02-24T00:53:52.418Z,35.05
2019-02-24T00:54:52.411Z,34.84
2019-02-24T00:55:52.397Z,32.29
2019-02-24T00:56:52.390Z,32.31
2019-02-24T00:57:52.376Z,35.77
2019-02-24T00:58:52.366Z,35.76
2019-02-24T00:59:52.355Z,35.74
2019-02-24T01:00:52.346Z,34.49
2019-02-24T01:01:52.333Z,30.32
2019-02-24T01:02:52.372Z,33.08
2019-02-24T01:03:52.311Z,33.40
2019-02-24T01:04:52.301Z,27.71
2019-02-24T01:05:52.291Z,27.75
2019-02-24T01:06:52.276Z,29.13
2019-02-24T01:07:52.266Z,35.18
2019-02-24T01:08:52.257Z,34.77
2019-02-24T01:09:52.348Z,31.20
2019-02-24T01:10:52.235Z,31.95
2019-02-24T01:11:52.223Z,33.59
2019-02-24T01:12:52.214Z,32.36
2019-02-24T01:13:53.977Z,30.41
2019-02-24T01:14:52.191Z,36.25
2019-02-24T01:15:52.181Z,33.89
2019-02-24T01:16:52.179Z,37.36
2019-02-24T01:17:52.159Z,36.32
2019-02-24T01:18:52.146Z,35.86
2019-02-24T01:19:52.134Z,37.37
2019-02-24T01:20:52.126Z,35.19
2019-02-24T01:21:52.118Z,36.42
2019-02-24T01:22:52.106Z,36.49
2019-02-24T01:23:52.095Z,35.98
2019-02-24T01:24:52.085Z,32.82
2019-02-24T01:25:52.072Z,32.00
2019-02-24T01:26:52.059Z,31.39
2019-02-24T01:27:52.052Z,33.12
2019-02-24T01:28:52.041Z,34.75
2019-02-24T01:29:52.030Z,34.44
2019-02-24T01:31:52.005Z,35.72
2019-02-24T01:33:51.986Z,35.81
2019-02-24T01:34:51.980Z,34.37
2019-02-24T01:35:52.066Z,34.86
2019-02-24T01:44:51.870Z,33.59
2019-02-24T01:45:51.858Z,33.91
2019-02-24T01:47:51.837Z,33.19
2019-02-24T01:48:51.826Z,33.39
2019-02-24T01:49:51.816Z,32.90
2019-02-24T01:50:51.803Z,33.10
2019-02-24T01:51:51.793Z,33.81
2019-02-24T01:52:51.779Z,33.20
2019-02-24T01:53:51.771Z,33.81
2019-02-24T01:54:51.761Z,33.39
2019-02-24T01:55:51.751Z,33.29
2019-02-24T01:56:51.737Z,31.78
2019-02-24T01:57:51.729Z,29.65
2019-02-24T01:58:51.716Z,27.03
2019-02-24T01:59:51.707Z,28.57
2019-02-24T02:00:51.702Z,35.30
2019-02-24T02:01:51.685Z,30.32
2019-02-24T02:02:51.676Z,30.43
2019-02-24T02:03:51.667Z,28.39
2019-02-24T02:04:51.651Z,30.75
2019-02-24T02:05:51.643Z,30.26
2019-02-24T02:06:51.633Z,28.32
2019-02-24T02:07:51.618Z,32.72
2019-02-24T02:08:51.612Z,28.86
2019-02-24T02:09:51.597Z,33.16
2019-02-24T02:10:51.588Z,31.64
2019-02-24T02:11:51.580Z,30.05
2019-02-24T02:12:51.569Z,31.13
2019-02-24T02:13:51.699Z,32.12
2019-02-24T02:14:51.549Z,33.19
2019-02-24T02:15:51.535Z,42.55
2019-02-24T02:16:51.524Z,41.49
2019-02-24T02:17:51.516Z,41.74
2019-02-24T02:18:51.503Z,40.06
2019-02-24T02:19:51.494Z,38.78
2019-02-24T02:20:51.480Z,37.10
2019-02-24T02:21:51.469Z,36.35
2019-02-24T02:22:51.460Z,36.12
2019-02-24T02:23:51.446Z,36.51
2019-02-24T02:24:51.437Z,34.86
2019-02-24T02:25:51.425Z,34.93
2019-02-24T02:26:51.413Z,28.04
2019-02-24T02:27:51.405Z,27.90
2019-02-24T02:28:51.401Z,28.98
2019-02-24T02:29:51.386Z,36.51
2019-02-24T02:30:51.374Z,40.08
2019-02-24T02:31:51.365Z,38.81
2019-02-24T02:32:51.356Z,37.97
2019-02-24T02:33:51.341Z,37.84
2019-02-24T02:34:51.330Z,36.80
2019-02-24T02:35:51.422Z,35.54
2019-02-24T02:36:51.412Z,29.96
2019-02-24T02:37:51.298Z,30.62
2019-02-24T02:38:51.289Z,39.75
2019-02-24T02:39:51.276Z,38.48
2019-02-24T02:40:51.266Z,37.84
2019-02-24T02:41:51.258Z,37.60
2019-02-24T02:42:51.244Z,37.15
2019-02-24T02:43:51.234Z,36.49
2019-02-24T02:44:51.223Z,35.96
2019-02-24T02:45:51.209Z,35.03
2019-02-24T02:46:51.207Z,34.50
2019-02-24T02:47:51.206Z,35.10
2019-02-24T02:48:51.178Z,34.68
2019-02-24T02:49:51.167Z,34.86
2019-02-24T02:50:51.156Z,35.07
2019-02-24T02:51:51.148Z,34.95
2019-02-24T02:52:51.138Z,34.63
2019-02-24T02:53:51.126Z,34.63
2019-02-24T02:54:51.115Z,34.61
2019-02-24T02:55:51.101Z,34.71
2019-02-24T02:56:51.097Z,34.61
2019-02-24T02:57:51.185Z,34.00
2019-02-24T02:58:54.352Z,33.80
2019-02-24T02:59:51.162Z,35.22
2019-02-24T03:00:51.050Z,34.51
2019-02-24T03:01:51.039Z,34.91
2019-02-24T03:02:51.028Z,34.90
2019-02-24T03:03:51.017Z,34.27
2019-02-24T03:04:51.007Z,35.00
2019-02-24T03:05:50.993Z,34.29
2019-02-24T03:06:50.987Z,35.10
2019-02-24T03:07:50.973Z,34.98
2019-02-24T03:08:50.964Z,34.78
2019-02-24T03:09:50.953Z,34.88
2019-02-24T03:10:50.944Z,34.88
2019-02-24T03:11:51.031Z,34.38
2019-02-24T03:12:50.923Z,34.68
2019-02-24T03:13:50.918Z,34.77
2019-02-24T03:14:50.899Z,34.56
2019-02-24T03:15:50.888Z,34.77
2019-02-24T03:16:50.930Z,34.56
2019-02-24T03:17:50.865Z,34.46
2019-02-24T03:18:50.855Z,34.46
2019-02-24T03:19:50.845Z,34.77
2019-02-24T03:20:50.833Z,34.85
2019-02-24T03:21:50.823Z,23.02
2019-02-24T03:22:50.817Z,23.66
2019-02-24T03:23:50.805Z,24.01
2019-02-24T03:24:50.792Z,24.67
2019-02-24T03:25:50.779Z,25.81
2019-02-24T03:26:50.768Z,26.15
2019-02-24T03:27:50.760Z,26.59
2019-02-24T03:28:50.748Z,30.92
2019-02-24T03:29:50.739Z,32.80
2019-02-24T03:30:50.788Z,32.73
2019-02-24T03:31:50.719Z,32.23
2019-02-24T03:32:50.706Z,32.56
2019-02-24T03:33:50.695Z,32.27
2019-02-24T03:34:50.680Z,32.92
2019-02-24T03:35:50.672Z,33.74
2019-02-24T03:36:50.961Z,33.44
2019-02-24T03:37:50.653Z,34.08
2019-02-24T03:38:50.640Z,35.73
2019-02-24T03:39:50.632Z,34.91
2019-02-24T03:40:50.617Z,33.28
2019-02-24T03:41:50.605Z,34.30
2019-02-24T03:42:50.600Z,34.42
2019-02-24T03:43:50.582Z,32.35
2019-02-24T03:44:50.624Z,36.26
2019-02-24T03:45:50.563Z,36.78
2019-02-24T03:46:50.564Z,36.87
2019-02-24T03:47:50.545Z,36.97
2019-02-24T03:48:50.530Z,35.73
2019-02-24T03:49:50.521Z,35.22
2019-02-24T03:50:50.546Z,35.52
2019-02-24T03:51:50.498Z,35.52
2019-02-24T03:52:50.489Z,35.73
2019-02-24T03:53:50.475Z,35.30
2019-02-24T03:54:50.473Z,35.30
2019-02-24T03:55:50.460Z,35.29
2019-02-24T03:56:50.442Z,34.46
2019-02-24T03:57:50.431Z,34.26
2019-02-24T03:58:50.420Z,33.33
2019-02-24T03:59:50.423Z,33.44
2019-02-24T04:00:50.397Z,33.54
2019-02-24T04:01:50.394Z,33.42
2019-02-24T04:02:50.382Z,33.83
2019-02-24T04:03:50.369Z,33.81
2019-02-24T04:04:50.353Z,42.51
2019-02-24T04:05:50.345Z,41.90
2019-02-24T04:06:50.333Z,40.29
2019-02-24T04:07:50.323Z,37.54
2019-02-24T04:08:50.308Z,36.25
2019-02-24T04:09:50.298Z,35.08
2019-02-24T04:10:50.294Z,33.71
2019-02-24T04:11:50.275Z,32.55
2019-02-24T04:12:50.266Z,32.11
2019-02-24T04:13:50.253Z,30.36
2019-02-24T04:14:50.246Z,30.34
2019-02-24T04:15:50.233Z,29.90
2019-02-24T04:16:50.228Z,29.19
2019-02-24T04:17:50.210Z,28.66
2019-02-24T04:18:50.207Z,28.04
2019-02-24T04:19:50.189Z,27.52
2019-02-24T04:20:50.177Z,28.03
2019-02-24T04:21:50.166Z,28.42
2019-02-24T04:22:50.156Z,27.91
2019-02-24T04:23:50.145Z,27.70
2019-02-24T04:24:50.142Z,28.09
2019-02-24T04:25:50.131Z,26.47
2019-02-24T04:26:50.114Z,26.87
2019-02-24T04:27:50.109Z,26.75
2019-02-24T04:28:50.093Z,26.24
2019-02-24T04:29:50.081Z,26.12
2019-02-24T04:30:50.078Z,25.62
2019-02-24T04:31:50.160Z,26.33
2019-02-24T04:32:50.053Z,26.33
2019-02-24T04:33:50.043Z,19.71
2019-02-24T04:34:50.026Z,20.74
2019-02-24T04:35:50.027Z,20.75
2019-02-24T04:36:50.008Z,21.47
2019-02-24T04:37:50.102Z,21.80
2019-02-24T04:38:49.988Z,22.21
2019-02-24T04:39:49.979Z,21.92
2019-02-24T04:40:49.969Z,23.04
2019-02-24T04:41:49.956Z,22.14
2019-02-24T04:42:49.942Z,22.35
2019-02-24T04:43:49.933Z,22.16
2019-02-24T04:44:49.920Z,22.97
2019-02-24T04:45:49.913Z,22.97
2019-02-24T04:46:49.906Z,22.97
2019-02-24T04:47:49.890Z,22.26
2019-02-24T04:48:49.881Z,22.47
2019-02-24T04:49:49.870Z,23.69
2019-02-24T04:50:49.859Z,23.18
2019-02-24T04:51:49.851Z,23.18
2019-02-24T04:52:49.841Z,21.88
2019-02-24T04:53:49.831Z,21.49
2019-02-24T04:54:49.818Z,22.18
2019-02-24T04:55:49.808Z,21.49
2019-02-24T04:56:49.800Z,21.79
2019-02-24T04:57:49.785Z,22.21
2019-02-24T04:58:49.778Z,22.41
2019-02-24T04:59:49.763Z,22.93
2019-02-24T05:00:49.752Z,26.48
2019-02-24T05:01:49.746Z,22.62
2019-02-24T05:02:49.732Z,22.52
2019-02-24T05:03:49.721Z,23.04
2019-02-24T05:04:49.716Z,23.44
2019-02-24T05:05:49.700Z,23.04
2019-02-24T05:06:49.688Z,23.66
2019-02-24T05:07:49.693Z,24.48
2019-02-24T05:08:49.671Z,23.77
2019-02-24T05:09:49.654Z,24.18
2019-02-24T05:10:49.643Z,24.18
2019-02-24T05:11:49.634Z,24.29
2019-02-24T05:12:49.622Z,23.98
2019-02-24T05:13:49.615Z,24.39
2019-02-24T05:14:49.602Z,25.01
2019-02-24T05:15:49.596Z,24.82
2019-02-24T05:16:49.584Z,24.62
2019-02-24T05:17:49.575Z,24.72
2019-02-24T05:18:49.574Z,24.11
2019-02-24T05:19:49.558Z,24.73
2019-02-24T05:20:49.537Z,24.53
2019-02-24T05:21:49.527Z,25.34
2019-02-24T05:22:49.514Z,24.92
2019-02-24T05:23:49.506Z,24.42
2019-02-24T05:24:49.493Z,24.53
2019-02-24T05:25:49.484Z,24.02
2019-02-24T05:26:49.477Z,24.63
2019-02-24T05:27:49.472Z,23.82
2019-02-24T05:28:49.451Z,24.64
2019-02-24T05:29:49.449Z,23.52
2019-02-24T05:30:49.434Z,24.54
2019-02-24T05:31:49.417Z,24.74
2019-02-24T05:32:49.662Z,24.45
2019-02-24T05:33:49.404Z,25.25
2019-02-24T05:34:49.400Z,25.16
2019-02-24T05:35:49.375Z,24.96
2019-02-24T05:36:49.370Z,24.75
2019-02-24T05:37:49.353Z,24.65
2019-02-24T05:38:49.350Z,24.56
2019-02-24T05:39:49.334Z,24.87
2019-02-24T05:40:49.323Z,24.97
2019-02-24T05:41:49.311Z,24.67
2019-02-24T05:42:49.298Z,24.46
2019-02-24T05:43:49.293Z,24.46
2019-02-24T05:44:49.276Z,25.67
2019-02-24T05:45:49.267Z,25.38
2019-02-24T05:46:49.261Z,25.89
2019-02-24T05:47:49.253Z,25.78
2019-02-24T05:48:49.238Z,25.28
2019-02-24T05:49:49.225Z,26.09
2019-02-24T05:50:49.212Z,26.19
2019-02-24T05:51:49.207Z,25.28
2019-02-24T05:52:49.195Z,25.48
2019-02-24T05:53:49.178Z,26.19
2019-02-24T05:54:49.169Z,25.38
2019-02-24T05:55:49.158Z,25.89
2019-02-24T05:56:49.151Z,24.97
2019-02-24T05:57:49.136Z,24.76
2019-02-24T05:58:49.132Z,25.48
2019-02-24T05:59:55.367Z,25.58
2019-02-24T06:00:50.209Z,25.29
2019-02-24T06:01:49.095Z,25.38
2019-02-24T06:02:49.091Z,26.50
2019-02-24T06:03:49.072Z,26.60
2019-02-24T06:04:49.066Z,26.80
2019-02-24T06:05:49.053Z,24.75
2019-02-24T06:06:49.039Z,23.93
2019-02-24T06:07:49.028Z,24.85
2019-02-24T06:08:49.016Z,24.54
2019-02-24T06:09:49.036Z,23.41
2019-02-24T06:10:48.999Z,24.43
2019-02-24T06:11:48.986Z,24.83
2019-02-24T06:12:48.976Z,24.72
2019-02-24T06:13:48.964Z,26.84
2019-02-24T06:14:48.957Z,27.34
2019-02-24T06:15:48.950Z,30.97
2019-02-24T06:16:48.943Z,24.95
2019-02-24T06:17:48.922Z,28.99
2019-02-24T06:18:48.916Z,22.59
2019-02-24T06:19:48.902Z,22.59
2019-02-24T06:20:48.909Z,22.60
2019-02-24T06:21:48.884Z,23.01
2019-02-24T06:22:48.877Z,23.42
2019-02-24T06:23:48.858Z,23.54
2019-02-24T06:24:48.850Z,23.33
2019-02-24T06:25:48.837Z,23.14
2019-02-24T06:26:48.825Z,23.75
2019-02-24T06:27:48.812Z,23.44
2019-02-24T06:28:48.805Z,23.76
2019-02-24T06:29:48.794Z,24.56
2019-02-24T06:30:48.784Z,24.06
2019-02-24T06:31:48.797Z,23.86
2019-02-24T06:32:48.762Z,24.38
2019-02-24T06:33:49.058Z,24.38
2019-02-24T06:34:48.744Z,25.50
2019-02-24T06:35:48.730Z,26.51
2019-02-24T06:36:48.714Z,26.41
2019-02-24T06:37:48.709Z,27.13
2019-02-24T06:38:48.697Z,27.13
2019-02-24T06:39:48.685Z,26.51
2019-02-24T06:40:48.674Z,26.82
2019-02-24T06:41:48.663Z,26.40
2019-02-24T06:42:48.649Z,26.72
2019-02-24T06:43:48.644Z,25.60
2019-02-24T06:44:48.629Z,26.40
2019-02-24T06:45:48.618Z,26.20
2019-02-24T06:46:48.605Z,25.48
2019-02-24T06:47:48.598Z,25.68
2019-02-24T06:48:48.587Z,26.19
2019-02-24T06:49:48.575Z,25.78
2019-02-24T06:50:48.566Z,26.19
2019-02-24T06:51:48.551Z,25.27
2019-02-24T06:52:48.540Z,24.46
2019-02-24T06:53:48.534Z,24.15
2019-02-24T06:54:48.518Z,24.87
2019-02-24T06:55:48.507Z,23.95
2019-02-24T06:56:48.507Z,23.85
2019-02-24T06:57:48.491Z,23.75
2019-02-24T06:58:48.472Z,24.26
2019-02-24T06:59:48.465Z,23.85
2019-02-24T07:00:48.456Z,24.35
2019-02-24T07:01:48.440Z,23.63
2019-02-24T07:02:48.432Z,25.27
2019-02-24T07:03:48.418Z,23.94
2019-02-24T07:04:48.407Z,25.96
2019-02-24T07:05:48.399Z,23.01
2019-02-24T07:06:48.386Z,23.31
2019-02-24T07:07:48.376Z,23.10
2019-02-24T07:08:48.367Z,23.10
2019-02-24T07:09:48.452Z,22.80
2019-02-24T07:10:48.340Z,24.32
2019-02-24T07:11:48.342Z,23.51
2019-02-24T07:12:48.326Z,23.71
2019-02-24T07:13:48.318Z,23.71
2019-02-24T07:14:48.304Z,23.41
2019-02-24T07:15:48.287Z,23.31
2019-02-24T07:16:48.277Z,22.30
2019-02-24T07:17:48.264Z,21.89
2019-02-24T07:18:48.253Z,21.99
2019-02-24T07:19:48.240Z,23.41
2019-02-24T07:20:48.230Z,23.31
2019-02-24T07:21:48.224Z,22.80
2019-02-24T07:22:48.212Z,22.90
2019-02-24T07:23:48.201Z,22.80
2019-02-24T07:24:48.187Z,21.78
2019-02-24T07:25:48.176Z,21.88
2019-02-24T07:26:48.165Z,22.08
2019-02-24T07:27:48.151Z,22.47
2019-02-24T07:28:48.152Z,22.07
2019-02-24T07:29:48.132Z,21.77
2019-02-24T07:30:48.120Z,21.46
2019-02-24T07:31:48.110Z,20.86
2019-02-24T07:32:48.199Z,23.38
2019-02-24T07:33:48.094Z,21.45
2019-02-24T07:34:48.180Z,30.36
2019-02-24T07:35:48.171Z,31.45
2019-02-24T07:36:48.055Z,33.03
2019-02-24T07:37:48.055Z,34.82
2019-02-24T07:38:48.182Z,33.27
2019-02-24T07:39:48.021Z,32.75
2019-02-24T07:40:48.010Z,32.74
2019-02-24T07:41:47.998Z,32.00
2019-02-24T07:42:47.987Z,32.50
2019-02-24T07:43:47.977Z,31.28
2019-02-24T07:44:47.965Z,31.18
2019-02-24T07:45:47.953Z,32.09
2019-02-24T07:46:47.942Z,30.36
2019-02-24T07:47:47.930Z,31.37
2019-02-24T07:48:47.922Z,31.47
2019-02-24T07:49:47.913Z,30.25
2019-02-24T07:50:47.899Z,29.85
2019-02-24T07:51:47.887Z,28.74
2019-02-24T07:52:47.876Z,29.54
2019-02-24T07:53:47.867Z,30.25
2019-02-24T07:54:47.852Z,31.15
2019-02-24T07:55:47.845Z,29.74
2019-02-24T07:56:47.837Z,30.74
2019-02-24T07:57:47.821Z,30.43
2019-02-24T07:58:47.811Z,29.53
2019-02-24T07:59:47.798Z,21.10
2019-02-24T08:00:47.786Z,27.94
2019-02-24T08:01:47.777Z,29.94
2019-02-24T08:02:47.765Z,28.54
2019-02-24T08:03:47.758Z,29.56
2019-02-24T08:04:47.743Z,29.46
2019-02-24T08:05:47.733Z,28.44
2019-02-24T08:06:47.720Z,29.14
2019-02-24T08:07:47.712Z,20.51
2019-02-24T08:08:47.704Z,20.52
2019-02-24T08:09:47.689Z,19.03
2019-02-24T08:10:47.683Z,19.54
2019-02-24T08:11:47.668Z,27.71
2019-02-24T08:12:47.656Z,29.62
2019-02-24T08:13:47.644Z,30.51
2019-02-24T08:14:47.634Z,30.61
2019-02-24T08:15:47.624Z,28.98
2019-02-24T08:16:47.614Z,29.77
2019-02-24T08:17:47.602Z,29.77
2019-02-24T08:18:49.906Z,29.86
2019-02-24T08:19:47.582Z,30.26
2019-02-24T08:20:47.585Z,29.46
2019-02-24T08:21:47.560Z,29.85
2019-02-24T08:22:47.546Z,27.94
2019-02-24T08:23:47.539Z,25.83
2019-02-24T08:24:47.528Z,29.44
2019-02-24T08:25:47.514Z,29.54
2019-02-24T08:26:47.507Z,30.35
2019-02-24T08:27:47.494Z,29.85
2019-02-24T08:28:47.484Z,29.24
2019-02-24T08:29:47.471Z,28.94
2019-02-24T08:30:47.468Z,27.43
2019-02-24T08:31:47.447Z,29.54
2019-02-24T08:32:47.439Z,28.94
2019-02-24T08:33:47.581Z,28.74
2019-02-24T08:34:47.416Z,29.14
2019-02-24T08:35:47.614Z,29.54
2019-02-24T08:36:47.397Z,23.41
2019-02-24T08:37:47.387Z,29.65
2019-02-24T08:38:47.372Z,30.55
2019-02-24T08:39:47.363Z,30.35
2019-02-24T08:40:47.354Z,28.24
2019-02-24T08:41:47.342Z,28.74
2019-02-24T08:42:47.333Z,27.94
2019-02-24T08:43:47.321Z,28.84
2019-02-24T08:44:47.362Z,29.54
2019-02-24T08:45:47.300Z,28.94
2019-02-24T08:46:47.290Z,29.53
2019-02-24T08:47:47.280Z,28.02
2019-02-24T08:48:47.267Z,29.73
2019-02-24T08:49:47.256Z,28.52
2019-02-24T08:50:47.245Z,26.31
2019-02-24T08:51:47.232Z,28.52
2019-02-24T08:52:47.226Z,29.43
2019-02-24T08:53:47.218Z,28.83
2019-02-24T08:54:47.204Z,28.63
2019-02-24T08:55:47.194Z,29.83
2019-02-24T08:56:47.186Z,29.83
2019-02-24T08:57:47.271Z,29.73
2019-02-24T08:58:47.164Z,28.11
2019-02-24T08:59:47.253Z,29.21
2019-02-24T09:00:50.896Z,25.41
2019-02-24T09:01:47.125Z,27.94
2019-02-24T09:02:47.118Z,27.53
2019-02-24T09:03:47.104Z,28.44
2019-02-24T09:04:47.094Z,27.83
2019-02-24T09:05:47.083Z,29.34
2019-02-24T09:06:47.086Z,28.44
2019-02-24T09:07:47.070Z,29.65
2019-02-24T09:08:47.055Z,29.43
2019-02-24T09:09:47.041Z,28.32
2019-02-24T09:10:47.034Z,29.23
2019-02-24T09:11:47.029Z,27.82
2019-02-24T09:12:47.019Z,28.02
2019-02-24T09:13:46.998Z,28.63
2019-02-24T09:14:46.989Z,25.21
2019-02-24T09:15:46.977Z,28.24
2019-02-24T09:16:46.963Z,28.74
2019-02-24T09:17:46.954Z,27.94
2019-02-24T09:18:46.954Z,26.23
2019-02-24T09:19:46.936Z,28.54
2019-02-24T09:20:46.923Z,29.34
2019-02-24T09:21:46.921Z,28.54
2019-02-24T09:22:46.900Z,29.04
2019-02-24T09:23:46.896Z,28.03
2019-02-24T09:24:46.886Z,26.23
2019-02-24T09:25:46.866Z,28.34
2019-02-24T09:26:46.861Z,28.34
2019-02-24T09:27:46.842Z,28.34
2019-02-24T09:28:46.832Z,26.33
2019-02-24T09:29:46.829Z,24.43
2019-02-24T09:30:46.815Z,25.14
2019-02-24T09:31:46.802Z,27.55
2019-02-24T09:32:46.792Z,29.05
2019-02-24T09:33:46.781Z,28.64
2019-02-24T09:34:46.929Z,29.44
2019-02-24T09:35:46.758Z,28.03
2019-02-24T09:36:46.752Z,27.94
2019-02-24T09:37:46.737Z,28.14
2019-02-24T09:38:46.722Z,27.63
2019-02-24T09:39:46.713Z,27.43
2019-02-24T09:40:46.699Z,28.03
2019-02-24T09:41:46.690Z,26.43
2019-02-24T09:42:46.685Z,27.63
2019-02-24T09:43:46.670Z,28.03
2019-02-24T09:44:46.656Z,24.92
2019-02-24T09:45:46.645Z,27.14
2019-02-24T09:46:46.644Z,28.96
2019-02-24T09:47:47.300Z,28.55
2019-02-24T09:48:46.611Z,29.46
2019-02-24T09:49:46.612Z,28.05
2019-02-24T09:50:46.597Z,28.24
2019-02-24T09:51:46.582Z,29.04
2019-02-24T09:52:46.576Z,28.64
2019-02-24T09:53:46.557Z,28.54
2019-02-24T09:54:46.548Z,28.54
2019-02-24T09:55:46.537Z,27.94
2019-02-24T09:56:46.522Z,28.14
2019-02-24T09:57:46.516Z,27.55
2019-02-24T09:58:46.509Z,26.94
2019-02-24T09:59:46.490Z,28.15
2019-02-24T10:00:46.482Z,27.74
2019-02-24T10:01:46.473Z,27.75
2019-02-24T10:02:46.470Z,28.25
2019-02-24T10:03:46.455Z,28.45
2019-02-24T10:04:46.442Z,27.95
2019-02-24T10:05:46.435Z,27.55
2019-02-24T10:06:46.418Z,27.95
2019-02-24T10:07:46.405Z,26.84
2019-02-24T10:08:46.394Z,29.05
2019-02-24T10:09:46.382Z,27.95
2019-02-24T10:10:46.376Z,28.05
2019-02-24T10:11:46.363Z,27.95
2019-02-24T10:12:46.359Z,27.95
2019-02-24T10:13:46.337Z,27.95
2019-02-24T10:14:46.331Z,27.65
2019-02-24T10:15:46.316Z,27.95
2019-02-24T10:16:46.308Z,28.35
2019-02-24T10:17:46.303Z,28.96
2019-02-24T10:18:46.289Z,23.54
2019-02-24T10:19:46.274Z,23.15
2019-02-24T10:20:46.265Z,22.46
2019-02-24T10:21:46.248Z,22.17
2019-02-24T10:22:46.237Z,28.92
2019-02-24T10:23:46.227Z,29.51
2019-02-24T10:24:46.319Z,29.62
2019-02-24T10:25:46.210Z,28.90
2019-02-24T10:26:46.199Z,28.49
2019-02-24T10:27:46.186Z,29.80
2019-02-24T10:28:47.678Z,28.88
2019-02-24T10:29:46.162Z,29.60
2019-02-24T10:30:46.157Z,28.69
2019-02-24T10:31:46.146Z,27.67
2019-02-24T10:32:46.132Z,28.98
2019-02-24T10:33:46.117Z,29.29
2019-02-24T10:34:46.108Z,29.69
2019-02-24T10:35:46.209Z,28.38
2019-02-24T10:36:46.090Z,28.88
2019-02-24T10:37:46.078Z,29.00
2019-02-24T10:38:46.067Z,29.90
2019-02-24T10:39:46.053Z,29.20
2019-02-24T10:40:46.040Z,29.51
2019-02-24T10:41:46.033Z,29.11
2019-02-24T10:42:46.032Z,28.81
2019-02-24T10:43:46.017Z,29.73
2019-02-24T10:44:46.010Z,30.43
2019-02-24T10:45:45.992Z,30.74
2019-02-24T10:46:45.980Z,30.63
2019-02-24T10:47:45.972Z,30.03
2019-02-24T10:48:45.955Z,29.02
2019-02-24T10:49:45.945Z,29.63
2019-02-24T10:50:45.933Z,30.74
2019-02-24T10:51:45.923Z,29.14
2019-02-24T10:52:45.915Z,30.13
2019-02-24T10:53:45.903Z,28.03
2019-02-24T10:54:45.895Z,30.45
2019-02-24T10:55:45.878Z,30.85
2019-02-24T10:56:45.871Z,30.35
2019-02-24T10:57:45.860Z,30.15
2019-02-24T10:58:45.847Z,30.55
2019-02-24T10:59:45.840Z,30.55
2019-02-24T11:00:45.836Z,29.54
2019-02-24T11:01:45.825Z,30.87
2019-02-24T11:02:45.824Z,31.17
2019-02-24T11:03:45.805Z,30.04
2019-02-24T11:04:45.788Z,30.85
2019-02-24T11:05:45.776Z,30.75
2019-02-24T11:06:45.767Z,30.55
2019-02-24T11:07:45.755Z,30.25
2019-02-24T11:08:45.744Z,30.65
2019-02-24T11:09:45.739Z,30.85
2019-02-24T11:10:45.723Z,30.04
2019-02-24T11:11:45.718Z,30.97
2019-02-24T11:12:45.703Z,30.45
2019-02-24T11:13:45.708Z,30.26
2019-02-24T11:14:45.680Z,30.56
2019-02-24T11:15:45.676Z,31.17
2019-02-24T11:16:45.663Z,30.26
2019-02-24T11:17:45.654Z,30.36
2019-02-24T11:18:45.638Z,30.77
2019-02-24T11:19:45.629Z,30.87
2019-02-24T11:20:45.619Z,30.36
2019-02-24T11:21:45.608Z,30.46
2019-02-24T11:22:45.600Z,29.76
2019-02-24T11:23:45.587Z,30.78
2019-02-24T11:24:45.577Z,31.17
2019-02-24T11:25:45.568Z,30.56
2019-02-24T11:26:45.555Z,31.07
2019-02-24T11:27:45.543Z,30.36
2019-02-24T11:28:45.534Z,30.36
2019-02-24T11:29:45.521Z,30.26
2019-02-24T11:30:45.510Z,30.58
2019-02-24T11:31:45.498Z,30.68
2019-02-24T11:32:45.492Z,30.68
2019-02-24T11:33:45.481Z,30.88
2019-02-24T11:34:45.464Z,31.18
2019-02-24T11:35:45.464Z,30.48
2019-02-24T11:36:45.847Z,30.97
2019-02-24T11:37:45.432Z,31.89
2019-02-24T11:38:45.422Z,30.26
2019-02-24T11:39:45.409Z,30.46
2019-02-24T11:40:45.400Z,31.37
2019-02-24T11:41:45.399Z,30.78
2019-02-24T11:42:45.381Z,30.58
2019-02-24T11:43:45.366Z,30.78
2019-02-24T11:44:45.363Z,30.38
2019-02-24T11:45:45.345Z,31.61
2019-02-24T11:46:45.339Z,31.89
2019-02-24T11:47:45.325Z,31.59
2019-02-24T11:48:45.318Z,31.69
2019-02-24T11:49:45.303Z,31.79
2019-02-24T11:50:45.296Z,31.29
2019-02-24T11:51:45.280Z,31.79
2019-02-24T11:52:45.266Z,31.61
2019-02-24T11:53:45.256Z,30.49
2019-02-24T11:54:45.247Z,31.40
2019-02-24T11:55:45.241Z,31.70
2019-02-24T11:56:45.224Z,31.70
2019-02-24T11:57:45.213Z,31.90
2019-02-24T11:58:45.202Z,31.50
2019-02-24T11:59:45.191Z,30.70
2019-02-24T12:00:45.184Z,31.50
2019-02-24T12:01:47.505Z,31.40
2019-02-24T12:02:45.168Z,31.50
2019-02-24T12:03:45.150Z,32.31
2019-02-24T12:04:45.140Z,31.40
2019-02-24T12:05:45.170Z,31.30
2019-02-24T12:06:45.115Z,31.50
2019-02-24T12:07:45.105Z,31.70
2019-02-24T12:08:45.092Z,32.33
2019-02-24T12:09:45.084Z,31.82
2019-02-24T12:10:45.073Z,31.72
2019-02-24T12:11:45.060Z,31.82
2019-02-24T12:12:45.059Z,31.82
2019-02-24T12:13:45.038Z,32.02
2019-02-24T12:14:45.026Z,32.02
2019-02-24T12:15:45.026Z,31.62
2019-02-24T12:16:45.011Z,32.02
2019-02-24T12:17:45.000Z,32.12
2019-02-24T12:18:44.987Z,29.90
2019-02-24T12:19:44.977Z,31.82
2019-02-24T12:20:44.966Z,29.01
2019-02-24T12:21:44.957Z,28.71
2019-02-24T12:22:44.945Z,29.99
2019-02-24T12:23:44.938Z,30.73
2019-02-24T12:24:44.925Z,33.68
2019-02-24T12:25:44.913Z,34.29
2019-02-24T12:26:44.900Z,34.56
2019-02-24T12:27:44.889Z,33.21
2019-02-24T12:28:44.878Z,33.21
2019-02-24T12:29:44.870Z,33.70
2019-02-24T12:30:44.857Z,33.58
2019-02-24T12:31:44.846Z,32.56
2019-02-24T12:32:44.837Z,31.95
2019-02-24T12:33:44.822Z,28.73
2019-02-24T12:34:44.813Z,31.39
2019-02-24T12:35:44.802Z,32.22
2019-02-24T12:36:44.790Z,31.81
2019-02-24T12:37:44.881Z,33.34
2019-02-24T12:38:44.769Z,31.52
2019-02-24T12:39:44.756Z,29.93
2019-02-24T12:40:44.751Z,30.67
2019-02-24T12:41:44.737Z,33.42
2019-02-24T12:42:44.724Z,35.54
2019-02-24T12:43:44.717Z,34.69
2019-02-24T12:44:44.704Z,34.56
2019-02-24T12:45:44.691Z,34.14
2019-02-24T12:46:44.683Z,32.91
2019-02-24T12:47:44.670Z,33.82
2019-02-24T12:48:44.664Z,33.80
2019-02-24T12:49:44.651Z,29.45
2019-02-24T12:50:44.638Z,28.97
2019-02-24T12:51:44.627Z,29.20
2019-02-24T12:52:44.616Z,29.94
2019-02-24T12:53:44.607Z,30.90
2019-02-24T12:54:44.593Z,32.56
2019-02-24T12:55:44.585Z,33.79
2019-02-24T12:56:44.571Z,33.91
2019-02-24T12:57:44.570Z,36.47
2019-02-24T12:58:44.550Z,37.59
2019-02-24T12:59:44.540Z,37.46
2019-02-24T13:00:44.531Z,37.30
2019-02-24T13:01:44.520Z,36.25
2019-02-24T13:02:44.517Z,36.23
2019-02-24T13:03:44.499Z,35.72
2019-02-24T13:04:44.490Z,34.90
2019-02-24T13:05:44.478Z,34.68
2019-02-24T13:06:44.465Z,31.35
2019-02-24T13:07:44.456Z,31.46
2019-02-24T13:08:44.443Z,32.31
2019-02-24T13:09:44.784Z,32.73
2019-02-24T13:10:44.424Z,33.06
2019-02-24T13:11:44.415Z,32.87
2019-02-24T13:12:44.409Z,35.03
2019-02-24T13:13:44.394Z,35.64
2019-02-24T13:14:44.379Z,34.71
2019-02-24T13:15:44.368Z,34.79
2019-02-24T13:16:44.366Z,36.71
2019-02-24T13:17:44.353Z,36.38
2019-02-24T13:18:44.336Z,35.55
2019-02-24T13:19:44.324Z,35.85
2019-02-24T13:20:44.315Z,36.34
2019-02-24T13:21:44.309Z,36.22
2019-02-24T13:22:44.293Z,34.98
2019-02-24T13:23:44.280Z,34.44
2019-02-24T13:24:44.275Z,33.74
2019-02-24T13:25:44.261Z,33.23
2019-02-24T13:26:44.256Z,34.55
2019-02-24T13:27:44.240Z,34.55
2019-02-24T13:28:50.548Z,34.85
2019-02-24T13:29:45.323Z,34.22
2019-02-24T13:30:44.215Z,34.33
2019-02-24T13:31:44.197Z,33.52
2019-02-24T13:32:44.193Z,33.41